sensor_id;sensor_type;location;lat;lon;timestamp;P1;durP1;ratioP1;P2;durP2;ratioP2
76021;SDS011;64718;52.124;6.226;2024-01-27T00:00:14;8.07;;;2.03;;
76021;SDS011;64718;52.124;6.226;2024-01-27T00:02:42;6.60;;;2.13;;
76021;SDS011;64718;52.124;6.226;2024-01-27T00:05:11;9.07;;;2.40;;
76021;SDS011;64718;52.124;6.226;2024-01-27T00:07:37;6.57;;;2.05;;
76021;SDS011;64718;52.124;6.226;2024-01-27T00:10:04;9.30;;;2.55;;
76021;SDS011;64718;52.124;6.226;2024-01-27T00:12:34;7.20;;;2.08;;
76021;SDS011;64718;52.124;6.226;2024-01-27T00:15:00;10.05;;;2.20;;
76021;SDS011;64718;52.124;6.226;2024-01-27T00:17:27;8.65;;;2.40;;
76021;SDS011;64718;52.124;6.226;2024-01-27T00:19:53;7.65;;;1.65;;
76021;SDS011;64718;52.124;6.226;2024-01-27T00:22:21;6.68;;;1.48;;
76021;SDS011;64718;52.124;6.226;2024-01-27T00:24:48;8.45;;;2.35;;
76021;SDS011;64718;52.124;6.226;2024-01-27T00:27:14;9.23;;;1.85;;
76021;SDS011;64718;52.124;6.226;2024-01-27T00:29:41;11.05;;;2.38;;
76021;SDS011;64718;52.124;6.226;2024-01-27T00:32:07;7.32;;;2.20;;
76021;SDS011;64718;52.124;6.226;2024-01-27T00:34:34;5.35;;;1.58;;
76021;SDS011;64718;52.124;6.226;2024-01-27T00:37:00;8.18;;;2.20;;
76021;SDS011;64718;52.124;6.226;2024-01-27T00:39:28;9.18;;;2.58;;
76021;SDS011;64718;52.124;6.226;2024-01-27T00:41:55;4.93;;;2.20;;
76021;SDS011;64718;52.124;6.226;2024-01-27T00:44:23;16.63;;;1.73;;
76021;SDS011;64718;52.124;6.226;2024-01-27T00:46:50;5.47;;;1.88;;
76021;SDS011;64718;52.124;6.226;2024-01-27T00:49:16;9.93;;;2.42;;
76021;SDS011;64718;52.124;6.226;2024-01-27T00:51:43;9.32;;;2.45;;
76021;SDS011;64718;52.124;6.226;2024-01-27T00:54:09;9.38;;;2.30;;
76021;SDS011;64718;52.124;6.226;2024-01-27T00:56:37;5.93;;;1.83;;
76021;SDS011;64718;52.124;6.226;2024-01-27T00:59:04;11.57;;;3.25;;
76021;SDS011;64718;52.124;6.226;2024-01-27T01:01:30;4.97;;;2.20;;
76021;SDS011;64718;52.124;6.226;2024-01-27T01:03:57;10.00;;;2.15;;
76021;SDS011;64718;52.124;6.226;2024-01-27T01:06:23;11.63;;;2.38;;
76021;SDS011;64718;52.124;6.226;2024-01-27T01:08:50;9.90;;;2.00;;
76021;SDS011;64718;52.124;6.226;2024-01-27T01:11:16;9.55;;;2.35;;
76021;SDS011;64718;52.124;6.226;2024-01-27T01:13:44;9.30;;;2.20;;
76021;SDS011;64718;52.124;6.226;2024-01-27T01:16:11;14.88;;;3.17;;
76021;SDS011;64718;52.124;6.226;2024-01-27T01:18:38;6.63;;;1.92;;
76021;SDS011;64718;52.124;6.226;2024-01-27T01:21:06;12.00;;;2.40;;
76021;SDS011;64718;52.124;6.226;2024-01-27T01:23:32;12.05;;;2.40;;
76021;SDS011;64718;52.124;6.226;2024-01-27T01:25:59;10.40;;;2.00;;
76021;SDS011;64718;52.124;6.226;2024-01-27T01:28:25;10.63;;;2.17;;
76021;SDS011;64718;52.124;6.226;2024-01-27T01:30:54;9.57;;;2.10;;
76021;SDS011;64718;52.124;6.226;2024-01-27T01:33:21;11.98;;;2.45;;
76021;SDS011;64718;52.124;6.226;2024-01-27T01:35:47;12.68;;;2.08;;
76021;SDS011;64718;52.124;6.226;2024-01-27T01:38:14;6.32;;;2.00;;
76021;SDS011;64718;52.124;6.226;2024-01-27T01:40:40;12.35;;;2.78;;
76021;SDS011;64718;52.124;6.226;2024-01-27T01:43:09;8.48;;;2.97;;
76021;SDS011;64718;52.124;6.226;2024-01-27T01:45:37;4.43;;;2.10;;
76021;SDS011;64718;52.124;6.226;2024-01-27T01:48:05;5.65;;;2.22;;
76021;SDS011;64718;52.124;6.226;2024-01-27T01:50:32;7.47;;;2.33;;
76021;SDS011;64718;52.124;6.226;2024-01-27T01:52:58;10.63;;;2.25;;
76021;SDS011;64718;52.124;6.226;2024-01-27T01:55:25;6.80;;;2.35;;
76021;SDS011;64718;52.124;6.226;2024-01-27T01:57:52;8.55;;;2.30;;
76021;SDS011;64718;52.124;6.226;2024-01-27T02:00:19;8.38;;;2.08;;
76021;SDS011;64718;52.124;6.226;2024-01-27T02:02:45;8.57;;;1.95;;
76021;SDS011;64718;52.124;6.226;2024-01-27T02:05:13;5.50;;;1.92;;
76021;SDS011;64718;52.124;6.226;2024-01-27T02:07:40;6.88;;;2.30;;
76021;SDS011;64718;52.124;6.226;2024-01-27T02:10:07;8.77;;;2.90;;
76021;SDS011;64718;52.124;6.226;2024-01-27T02:12:39;5.65;;;2.55;;
76021;SDS011;64718;52.124;6.226;2024-01-27T02:15:08;10.27;;;3.38;;
76021;SDS011;64718;52.124;6.226;2024-01-27T02:17:36;8.82;;;2.83;;
76021;SDS011;64718;52.124;6.226;2024-01-27T02:20:03;11.38;;;3.10;;
76021;SDS011;64718;52.124;6.226;2024-01-27T02:22:32;10.68;;;2.88;;
76021;SDS011;64718;52.124;6.226;2024-01-27T02:25:01;9.45;;;2.80;;
76021;SDS011;64718;52.124;6.226;2024-01-27T02:27:28;16.58;;;2.85;;
76021;SDS011;64718;52.124;6.226;2024-01-27T02:29:54;6.28;;;1.98;;
76021;SDS011;64718;52.124;6.226;2024-01-27T02:32:21;7.57;;;3.15;;
76021;SDS011;64718;52.124;6.226;2024-01-27T02:34:47;7.78;;;2.20;;
76021;SDS011;64718;52.124;6.226;2024-01-27T02:37:14;4.68;;;2.13;;
76021;SDS011;64718;52.124;6.226;2024-01-27T02:39:40;6.68;;;2.47;;
76021;SDS011;64718;52.124;6.226;2024-01-27T02:42:08;9.27;;;3.08;;
76021;SDS011;64718;52.124;6.226;2024-01-27T02:44:35;10.15;;;2.65;;
76021;SDS011;64718;52.124;6.226;2024-01-27T02:47:01;11.50;;;2.08;;
76021;SDS011;64718;52.124;6.226;2024-01-27T02:49:28;6.25;;;2.75;;
76021;SDS011;64718;52.124;6.226;2024-01-27T02:51:54;3.38;;;1.98;;
76021;SDS011;64718;52.124;6.226;2024-01-27T02:54:21;5.55;;;2.42;;
76021;SDS011;64718;52.124;6.226;2024-01-27T02:56:47;14.05;;;3.30;;
76021;SDS011;64718;52.124;6.226;2024-01-27T02:59:15;10.32;;;3.28;;
76021;SDS011;64718;52.124;6.226;2024-01-27T03:01:42;4.75;;;2.28;;
76021;SDS011;64718;52.124;6.226;2024-01-27T03:04:08;8.13;;;2.83;;
76021;SDS011;64718;52.124;6.226;2024-01-27T03:06:35;6.10;;;2.55;;
76021;SDS011;64718;52.124;6.226;2024-01-27T03:09:01;5.80;;;2.63;;
76021;SDS011;64718;52.124;6.226;2024-01-27T03:11:28;5.35;;;2.17;;
76021;SDS011;64718;52.124;6.226;2024-01-27T03:13:55;9.80;;;2.50;;
76021;SDS011;64718;52.124;6.226;2024-01-27T03:16:22;8.32;;;2.90;;
76021;SDS011;64718;52.124;6.226;2024-01-27T03:18:49;8.35;;;2.53;;
76021;SDS011;64718;52.124;6.226;2024-01-27T03:21:15;7.20;;;2.67;;
76021;SDS011;64718;52.124;6.226;2024-01-27T03:23:42;8.38;;;3.60;;
76021;SDS011;64718;52.124;6.226;2024-01-27T03:26:08;9.88;;;2.50;;
76021;SDS011;64718;52.124;6.226;2024-01-27T03:28:35;10.00;;;3.20;;
76021;SDS011;64718;52.124;6.226;2024-01-27T03:31:02;7.50;;;3.17;;
76021;SDS011;64718;52.124;6.226;2024-01-27T03:33:30;7.85;;;2.70;;
76021;SDS011;64718;52.124;6.226;2024-01-27T03:35:56;8.70;;;2.92;;
76021;SDS011;64718;52.124;6.226;2024-01-27T03:38:23;6.07;;;2.67;;
76021;SDS011;64718;52.124;6.226;2024-01-27T03:40:49;8.77;;;3.70;;
76021;SDS011;64718;52.124;6.226;2024-01-27T03:43:18;10.63;;;2.70;;
76021;SDS011;64718;52.124;6.226;2024-01-27T03:45:44;5.15;;;3.00;;
76021;SDS011;64718;52.124;6.226;2024-01-27T03:48:11;6.93;;;3.53;;
76021;SDS011;64718;52.124;6.226;2024-01-27T03:50:39;10.60;;;3.42;;
76021;SDS011;64718;52.124;6.226;2024-01-27T03:53:05;5.40;;;2.88;;
76021;SDS011;64718;52.124;6.226;2024-01-27T03:55:32;4.28;;;2.40;;
76021;SDS011;64718;52.124;6.226;2024-01-27T03:57:59;6.50;;;3.42;;
76021;SDS011;64718;52.124;6.226;2024-01-27T04:00:25;7.93;;;2.83;;
76021;SDS011;64718;52.124;6.226;2024-01-27T04:02:54;8.32;;;2.78;;
76021;SDS011;64718;52.124;6.226;2024-01-27T04:05:21;6.38;;;2.22;;
76021;SDS011;64718;52.124;6.226;2024-01-27T04:07:49;9.05;;;3.60;;
76021;SDS011;64718;52.124;6.226;2024-01-27T04:10:16;6.05;;;3.05;;
76021;SDS011;64718;52.124;6.226;2024-01-27T04:12:43;5.43;;;3.30;;
76021;SDS011;64718;52.124;6.226;2024-01-27T04:15:09;6.00;;;2.88;;
76021;SDS011;64718;52.124;6.226;2024-01-27T04:17:36;4.57;;;3.60;;
76021;SDS011;64718;52.124;6.226;2024-01-27T04:20:03;5.63;;;3.35;;
76021;SDS011;64718;52.124;6.226;2024-01-27T04:22:30;4.07;;;2.90;;
76021;SDS011;64718;52.124;6.226;2024-01-27T04:24:58;6.45;;;3.20;;
76021;SDS011;64718;52.124;6.226;2024-01-27T04:27:26;7.78;;;3.05;;
76021;SDS011;64718;52.124;6.226;2024-01-27T04:29:53;8.38;;;3.33;;
76021;SDS011;64718;52.124;6.226;2024-01-27T04:32:19;7.55;;;3.60;;
76021;SDS011;64718;52.124;6.226;2024-01-27T04:34:47;8.32;;;3.92;;
76021;SDS011;64718;52.124;6.226;2024-01-27T04:37:14;6.50;;;3.15;;
76021;SDS011;64718;52.124;6.226;2024-01-27T04:39:41;8.70;;;3.67;;
76021;SDS011;64718;52.124;6.226;2024-01-27T04:42:08;10.48;;;4.63;;
76021;SDS011;64718;52.124;6.226;2024-01-27T04:44:35;8.57;;;3.25;;
76021;SDS011;64718;52.124;6.226;2024-01-27T04:47:01;9.57;;;3.83;;
76021;SDS011;64718;52.124;6.226;2024-01-27T04:49:28;10.15;;;4.32;;
76021;SDS011;64718;52.124;6.226;2024-01-27T04:51:54;14.65;;;4.45;;
76021;SDS011;64718;52.124;6.226;2024-01-27T04:54:21;7.13;;;3.85;;
76021;SDS011;64718;52.124;6.226;2024-01-27T04:56:47;10.93;;;4.05;;
76021;SDS011;64718;52.124;6.226;2024-01-27T04:59:16;8.05;;;3.70;;
76021;SDS011;64718;52.124;6.226;2024-01-27T05:01:43;8.55;;;3.97;;
76021;SDS011;64718;52.124;6.226;2024-01-27T05:04:10;8.77;;;3.80;;
76021;SDS011;64718;52.124;6.226;2024-01-27T05:06:37;11.52;;;4.28;;
76021;SDS011;64718;52.124;6.226;2024-01-27T05:09:04;11.93;;;4.60;;
76021;SDS011;64718;52.124;6.226;2024-01-27T05:11:31;6.65;;;3.67;;
76021;SDS011;64718;52.124;6.226;2024-01-27T05:13:58;9.57;;;4.57;;
76021;SDS011;64718;52.124;6.226;2024-01-27T05:16:26;12.57;;;4.93;;
76021;SDS011;64718;52.124;6.226;2024-01-27T05:18:53;12.13;;;4.38;;
76021;SDS011;64718;52.124;6.226;2024-01-27T05:21:20;15.75;;;4.88;;
76021;SDS011;64718;52.124;6.226;2024-01-27T05:23:46;8.68;;;4.20;;
76021;SDS011;64718;52.124;6.226;2024-01-27T05:26:13;11.20;;;4.78;;
76021;SDS011;64718;52.124;6.226;2024-01-27T05:28:39;10.77;;;4.32;;
76021;SDS011;64718;52.124;6.226;2024-01-27T05:31:06;13.57;;;4.85;;
76021;SDS011;64718;52.124;6.226;2024-01-27T05:33:34;14.35;;;4.95;;
76021;SDS011;64718;52.124;6.226;2024-01-27T05:36:01;15.20;;;5.57;;
76021;SDS011;64718;52.124;6.226;2024-01-27T05:38:27;16.63;;;6.05;;
76021;SDS011;64718;52.124;6.226;2024-01-27T05:40:55;12.95;;;6.00;;
76021;SDS011;64718;52.124;6.226;2024-01-27T05:43:21;15.73;;;6.13;;
76021;SDS011;64718;52.124;6.226;2024-01-27T05:45:48;19.63;;;7.25;;
76021;SDS011;64718;52.124;6.226;2024-01-27T05:48:15;11.75;;;6.95;;
76021;SDS011;64718;52.124;6.226;2024-01-27T05:50:43;16.25;;;6.25;;
76021;SDS011;64718;52.124;6.226;2024-01-27T05:53:20;24.33;;;7.25;;
76021;SDS011;64718;52.124;6.226;2024-01-27T05:55:47;15.68;;;6.88;;
76021;SDS011;64718;52.124;6.226;2024-01-27T05:58:13;16.02;;;6.88;;
76021;SDS011;64718;52.124;6.226;2024-01-27T06:00:42;13.05;;;5.78;;
76021;SDS011;64718;52.124;6.226;2024-01-27T06:03:09;11.93;;;5.90;;
76021;SDS011;64718;52.124;6.226;2024-01-27T06:05:35;18.13;;;7.28;;
76021;SDS011;64718;52.124;6.226;2024-01-27T06:08:03;15.93;;;6.93;;
76021;SDS011;64718;52.124;6.226;2024-01-27T06:10:30;15.90;;;6.95;;
76021;SDS011;64718;52.124;6.226;2024-01-27T06:12:57;33.45;;;7.57;;
76021;SDS011;64718;52.124;6.226;2024-01-27T06:15:24;17.27;;;8.25;;
76021;SDS011;64718;52.124;6.226;2024-01-27T06:17:50;22.98;;;7.97;;
76021;SDS011;64718;52.124;6.226;2024-01-27T06:20:17;19.60;;;7.22;;
76021;SDS011;64718;52.124;6.226;2024-01-27T06:22:43;17.70;;;8.00;;
76021;SDS011;64718;52.124;6.226;2024-01-27T06:25:11;20.17;;;8.55;;
76021;SDS011;64718;52.124;6.226;2024-01-27T06:27:38;17.15;;;7.82;;
76021;SDS011;64718;52.124;6.226;2024-01-27T06:30:07;22.30;;;8.80;;
76021;SDS011;64718;52.124;6.226;2024-01-27T06:32:34;21.70;;;9.13;;
76021;SDS011;64718;52.124;6.226;2024-01-27T06:35:01;15.27;;;7.95;;
76021;SDS011;64718;52.124;6.226;2024-01-27T06:37:28;22.40;;;9.40;;
76021;SDS011;64718;52.124;6.226;2024-01-27T06:39:54;22.45;;;8.13;;
76021;SDS011;64718;52.124;6.226;2024-01-27T06:42:22;16.85;;;7.72;;
76021;SDS011;64718;52.124;6.226;2024-01-27T06:44:49;16.00;;;8.23;;
76021;SDS011;64718;52.124;6.226;2024-01-27T06:47:15;12.80;;;6.65;;
76021;SDS011;64718;52.124;6.226;2024-01-27T06:49:42;18.80;;;7.30;;
76021;SDS011;64718;52.124;6.226;2024-01-27T06:52:08;20.25;;;7.90;;
76021;SDS011;64718;52.124;6.226;2024-01-27T06:54:37;17.70;;;8.13;;
76021;SDS011;64718;52.124;6.226;2024-01-27T06:57:06;18.00;;;8.88;;
76021;SDS011;64718;52.124;6.226;2024-01-27T06:59:34;18.73;;;8.88;;
76021;SDS011;64718;52.124;6.226;2024-01-27T07:02:00;24.05;;;7.53;;
76021;SDS011;64718;52.124;6.226;2024-01-27T07:04:27;16.65;;;7.50;;
76021;SDS011;64718;52.124;6.226;2024-01-27T07:06:53;15.43;;;7.90;;
76021;SDS011;64718;52.124;6.226;2024-01-27T07:09:20;13.10;;;7.63;;
76021;SDS011;64718;52.124;6.226;2024-01-27T07:11:46;13.73;;;7.10;;
76021;SDS011;64718;52.124;6.226;2024-01-27T07:14:13;21.83;;;7.85;;
76021;SDS011;64718;52.124;6.226;2024-01-27T07:16:41;16.98;;;8.07;;
76021;SDS011;64718;52.124;6.226;2024-01-27T07:19:08;18.52;;;7.07;;
76021;SDS011;64718;52.124;6.226;2024-01-27T07:21:36;13.55;;;8.27;;
76021;SDS011;64718;52.124;6.226;2024-01-27T07:24:03;12.32;;;7.90;;
76021;SDS011;64718;52.124;6.226;2024-01-27T07:26:30;18.67;;;8.25;;
76021;SDS011;64718;52.124;6.226;2024-01-27T07:28:57;15.68;;;8.43;;
76021;SDS011;64718;52.124;6.226;2024-01-27T07:31:23;16.70;;;8.00;;
76021;SDS011;64718;52.124;6.226;2024-01-27T07:33:53;16.42;;;9.20;;
76021;SDS011;64718;52.124;6.226;2024-01-27T07:36:19;20.52;;;8.80;;
76021;SDS011;64718;52.124;6.226;2024-01-27T07:38:46;19.52;;;7.93;;
76021;SDS011;64718;52.124;6.226;2024-01-27T07:41:12;18.52;;;9.57;;
76021;SDS011;64718;52.124;6.226;2024-01-27T07:43:39;19.52;;;10.50;;
76021;SDS011;64718;52.124;6.226;2024-01-27T07:46:05;23.55;;;11.05;;
76021;SDS011;64718;52.124;6.226;2024-01-27T07:48:32;20.17;;;10.73;;
76021;SDS011;64718;52.124;6.226;2024-01-27T07:51:00;23.50;;;10.75;;
76021;SDS011;64718;52.124;6.226;2024-01-27T07:53:27;23.05;;;13.05;;
76021;SDS011;64718;52.124;6.226;2024-01-27T07:55:53;21.98;;;11.52;;
76021;SDS011;64718;52.124;6.226;2024-01-27T07:58:21;25.52;;;11.93;;
76021;SDS011;64718;52.124;6.226;2024-01-27T08:00:47;23.88;;;10.65;;
76021;SDS011;64718;52.124;6.226;2024-01-27T08:03:14;24.63;;;11.55;;
76021;SDS011;64718;52.124;6.226;2024-01-27T08:05:41;22.10;;;10.35;;
76021;SDS011;64718;52.124;6.226;2024-01-27T08:08:09;21.65;;;11.60;;
76021;SDS011;64718;52.124;6.226;2024-01-27T08:10:35;26.77;;;12.55;;
76021;SDS011;64718;52.124;6.226;2024-01-27T08:13:03;24.02;;;11.80;;
76021;SDS011;64718;52.124;6.226;2024-01-27T08:15:29;26.75;;;11.57;;
76021;SDS011;64718;52.124;6.226;2024-01-27T08:17:56;28.52;;;11.32;;
76021;SDS011;64718;52.124;6.226;2024-01-27T08:20:22;26.13;;;12.18;;
76021;SDS011;64718;52.124;6.226;2024-01-27T08:22:49;21.63;;;12.85;;
76021;SDS011;64718;52.124;6.226;2024-01-27T08:25:18;21.73;;;14.40;;
76021;SDS011;64718;52.124;6.226;2024-01-27T08:27:44;33.20;;;15.52;;
76021;SDS011;64718;52.124;6.226;2024-01-27T08:30:11;28.48;;;14.45;;
76021;SDS011;64718;52.124;6.226;2024-01-27T08:32:38;32.70;;;16.08;;
76021;SDS011;64718;52.124;6.226;2024-01-27T08:35:05;26.70;;;14.30;;
76021;SDS011;64718;52.124;6.226;2024-01-27T08:37:32;35.28;;;15.38;;
76021;SDS011;64718;52.124;6.226;2024-01-27T08:40:04;36.75;;;16.77;;
76021;SDS011;64718;52.124;6.226;2024-01-27T08:42:34;27.33;;;14.98;;
76021;SDS011;64718;52.124;6.226;2024-01-27T08:45:00;35.70;;;17.73;;
76021;SDS011;64718;52.124;6.226;2024-01-27T08:47:27;36.58;;;18.30;;
76021;SDS011;64718;52.124;6.226;2024-01-27T08:49:54;33.30;;;17.40;;
76021;SDS011;64718;52.124;6.226;2024-01-27T08:52:21;37.45;;;19.65;;
76021;SDS011;64718;52.124;6.226;2024-01-27T08:54:47;38.90;;;18.48;;
76021;SDS011;64718;52.124;6.226;2024-01-27T08:57:14;39.42;;;20.80;;
76021;SDS011;64718;52.124;6.226;2024-01-27T08:59:42;37.95;;;19.00;;
76021;SDS011;64718;52.124;6.226;2024-01-27T09:02:08;35.45;;;17.65;;
76021;SDS011;64718;52.124;6.226;2024-01-27T09:04:35;39.95;;;17.52;;
76021;SDS011;64718;52.124;6.226;2024-01-27T09:07:01;41.83;;;19.60;;
76021;SDS011;64718;52.124;6.226;2024-01-27T09:09:28;33.83;;;18.40;;
76021;SDS011;64718;52.124;6.226;2024-01-27T09:11:55;26.77;;;16.40;;
76021;SDS011;64718;52.124;6.226;2024-01-27T09:14:21;34.78;;;16.42;;
76021;SDS011;64718;52.124;6.226;2024-01-27T09:16:49;28.27;;;15.55;;
76021;SDS011;64718;52.124;6.226;2024-01-27T09:21:43;27.58;;;13.40;;
76021;SDS011;64718;52.124;6.226;2024-01-27T09:24:10;30.63;;;13.77;;
76021;SDS011;64718;52.124;6.226;2024-01-27T09:26:36;28.15;;;14.20;;
76021;SDS011;64718;52.124;6.226;2024-01-27T09:29:03;23.30;;;13.15;;
76021;SDS011;64718;52.124;6.226;2024-01-27T09:31:29;22.42;;;12.50;;
76021;SDS011;64718;52.124;6.226;2024-01-27T09:33:57;28.35;;;14.57;;
76021;SDS011;64718;52.124;6.226;2024-01-27T09:36:24;24.40;;;14.65;;
76021;SDS011;64718;52.124;6.226;2024-01-27T09:38:51;19.60;;;11.80;;
76021;SDS011;64718;52.124;6.226;2024-01-27T09:41:19;25.13;;;13.68;;
76021;SDS011;64718;52.124;6.226;2024-01-27T09:43:45;27.33;;;13.52;;
76021;SDS011;64718;52.124;6.226;2024-01-27T09:46:13;24.10;;;12.27;;
76021;SDS011;64718;52.124;6.226;2024-01-27T09:48:40;24.02;;;13.73;;
76021;SDS011;64718;52.124;6.226;2024-01-27T09:51:08;20.83;;;11.70;;
76021;SDS011;64718;52.124;6.226;2024-01-27T09:53:36;22.65;;;13.75;;
76021;SDS011;64718;52.124;6.226;2024-01-27T09:56:03;24.27;;;12.10;;
76021;SDS011;64718;52.124;6.226;2024-01-27T09:58:30;20.08;;;11.00;;
76021;SDS011;64718;52.124;6.226;2024-01-27T10:00:58;21.40;;;9.48;;
76021;SDS011;64718;52.124;6.226;2024-01-27T10:03:25;16.15;;;8.98;;
76021;SDS011;64718;52.124;6.226;2024-01-27T10:05:53;19.80;;;10.55;;
76021;SDS011;64718;52.124;6.226;2024-01-27T10:10:50;15.27;;;9.48;;
76021;SDS011;64718;52.124;6.226;2024-01-27T10:13:20;12.88;;;8.20;;
76021;SDS011;64718;52.124;6.226;2024-01-27T10:15:58;15.20;;;8.00;;
76021;SDS011;64718;52.124;6.226;2024-01-27T10:18:26;11.75;;;7.80;;
76021;SDS011;64718;52.124;6.226;2024-01-27T10:20:52;15.48;;;8.18;;
76021;SDS011;64718;52.124;6.226;2024-01-27T10:23:19;12.13;;;8.40;;
76021;SDS011;64718;52.124;6.226;2024-01-27T10:25:47;17.60;;;9.02;;
76021;SDS011;64718;52.124;6.226;2024-01-27T10:28:13;14.90;;;8.60;;
76021;SDS011;64718;52.124;6.226;2024-01-27T10:30:40;14.60;;;9.13;;
76021;SDS011;64718;52.124;6.226;2024-01-27T10:33:07;15.10;;;9.15;;
76021;SDS011;64718;52.124;6.226;2024-01-27T10:35:35;15.25;;;8.20;;
76021;SDS011;64718;52.124;6.226;2024-01-27T10:38:01;12.50;;;8.07;;
76021;SDS011;64718;52.124;6.226;2024-01-27T10:40:28;16.35;;;9.13;;
76021;SDS011;64718;52.124;6.226;2024-01-27T10:43:00;13.07;;;9.50;;
76021;SDS011;64718;52.124;6.226;2024-01-27T10:45:29;17.73;;;9.48;;
76021;SDS011;64718;52.124;6.226;2024-01-27T10:48:00;14.40;;;8.80;;
76021;SDS011;64718;52.124;6.226;2024-01-27T10:50:28;19.33;;;8.02;;
76021;SDS011;64718;52.124;6.226;2024-01-27T10:52:55;11.35;;;8.35;;
76021;SDS011;64718;52.124;6.226;2024-01-27T10:55:23;15.85;;;8.77;;
76021;SDS011;64718;52.124;6.226;2024-01-27T10:57:50;14.02;;;7.95;;
76021;SDS011;64718;52.124;6.226;2024-01-27T11:00:21;24.77;;;9.68;;
76021;SDS011;64718;52.124;6.226;2024-01-27T11:02:50;14.43;;;8.00;;
76021;SDS011;64718;52.124;6.226;2024-01-27T11:05:19;10.90;;;7.40;;
76021;SDS011;64718;52.124;6.226;2024-01-27T11:07:47;16.38;;;8.05;;
76021;SDS011;64718;52.124;6.226;2024-01-27T11:10:14;14.10;;;8.45;;
76021;SDS011;64718;52.124;6.226;2024-01-27T11:12:40;18.05;;;7.22;;
76021;SDS011;64718;52.124;6.226;2024-01-27T11:15:07;14.57;;;7.47;;
76021;SDS011;64718;52.124;6.226;2024-01-27T11:17:39;10.10;;;7.13;;
76021;SDS011;64718;52.124;6.226;2024-01-27T11:20:07;14.27;;;6.97;;
76021;SDS011;64718;52.124;6.226;2024-01-27T11:22:36;12.02;;;6.63;;
76021;SDS011;64718;52.124;6.226;2024-01-27T11:25:07;11.18;;;6.00;;
76021;SDS011;64718;52.124;6.226;2024-01-27T11:30:08;13.63;;;6.53;;
76021;SDS011;64718;52.124;6.226;2024-01-27T11:32:53;9.68;;;6.05;;
76021;SDS011;64718;52.124;6.226;2024-01-27T11:35:20;13.63;;;5.90;;
76021;SDS011;64718;52.124;6.226;2024-01-27T11:37:47;16.02;;;6.07;;
76021;SDS011;64718;52.124;6.226;2024-01-27T11:40:14;10.75;;;6.00;;
76021;SDS011;64718;52.124;6.226;2024-01-27T11:42:40;11.30;;;6.05;;
76021;SDS011;64718;52.124;6.226;2024-01-27T11:45:07;9.02;;;7.38;;
76021;SDS011;64718;52.124;6.226;2024-01-27T11:47:34;13.60;;;5.45;;
76021;SDS011;64718;52.124;6.226;2024-01-27T11:50:03;9.77;;;5.10;;
76021;SDS011;64718;52.124;6.226;2024-01-27T11:52:30;8.65;;;5.53;;
76021;SDS011;64718;52.124;6.226;2024-01-27T11:54:56;9.75;;;5.47;;
76021;SDS011;64718;52.124;6.226;2024-01-27T11:57:23;13.05;;;5.25;;
76021;SDS011;64718;52.124;6.226;2024-01-27T11:59:51;9.27;;;4.50;;
76021;SDS011;64718;52.124;6.226;2024-01-27T12:02:17;7.40;;;3.78;;
76021;SDS011;64718;52.124;6.226;2024-01-27T12:04:43;7.32;;;3.90;;
76021;SDS011;64718;52.124;6.226;2024-01-27T12:07:11;10.02;;;3.80;;
76021;SDS011;64718;52.124;6.226;2024-01-27T12:09:37;7.88;;;4.18;;
76021;SDS011;64718;52.124;6.226;2024-01-27T12:12:04;11.73;;;4.05;;
76021;SDS011;64718;52.124;6.226;2024-01-27T12:14:37;10.75;;;4.05;;
76021;SDS011;64718;52.124;6.226;2024-01-27T12:17:05;9.82;;;4.57;;
76021;SDS011;64718;52.124;6.226;2024-01-27T12:19:33;10.05;;;3.70;;
76021;SDS011;64718;52.124;6.226;2024-01-27T12:22:00;8.68;;;3.67;;
76021;SDS011;64718;52.124;6.226;2024-01-27T12:24:28;10.20;;;3.70;;
76021;SDS011;64718;52.124;6.226;2024-01-27T12:26:55;8.35;;;2.53;;
76021;SDS011;64718;52.124;6.226;2024-01-27T12:29:23;6.47;;;2.65;;
76021;SDS011;64718;52.124;6.226;2024-01-27T12:31:49;6.75;;;2.45;;
76021;SDS011;64718;52.124;6.226;2024-01-27T12:34:17;7.38;;;2.30;;
76021;SDS011;64718;52.124;6.226;2024-01-27T12:36:44;6.70;;;2.17;;
76021;SDS011;64718;52.124;6.226;2024-01-27T12:39:10;8.10;;;2.90;;
76021;SDS011;64718;52.124;6.226;2024-01-27T12:41:39;7.00;;;2.88;;
76021;SDS011;64718;52.124;6.226;2024-01-27T12:44:05;7.30;;;3.03;;
76021;SDS011;64718;52.124;6.226;2024-01-27T12:46:32;8.63;;;3.50;;
76021;SDS011;64718;52.124;6.226;2024-01-27T12:48:59;10.85;;;3.55;;
76021;SDS011;64718;52.124;6.226;2024-01-27T12:51:25;6.60;;;3.08;;
76021;SDS011;64718;52.124;6.226;2024-01-27T12:53:52;4.70;;;2.92;;
76021;SDS011;64718;52.124;6.226;2024-01-27T12:56:18;8.25;;;3.10;;
76021;SDS011;64718;52.124;6.226;2024-01-27T12:58:46;7.28;;;2.35;;
76021;SDS011;64718;52.124;6.226;2024-01-27T13:01:13;6.10;;;2.38;;
76021;SDS011;64718;52.124;6.226;2024-01-27T13:03:40;6.93;;;3.08;;
76021;SDS011;64718;52.124;6.226;2024-01-27T13:06:07;8.25;;;2.63;;
76021;SDS011;64718;52.124;6.226;2024-01-27T13:08:33;7.38;;;2.45;;
76021;SDS011;64718;52.124;6.226;2024-01-27T13:11:00;4.95;;;2.35;;
76021;SDS011;64718;52.124;6.226;2024-01-27T13:13:27;7.32;;;3.42;;
76021;SDS011;64718;52.124;6.226;2024-01-27T13:15:55;9.38;;;3.20;;
76021;SDS011;64718;52.124;6.226;2024-01-27T13:18:22;8.23;;;3.70;;
76021;SDS011;64718;52.124;6.226;2024-01-27T13:20:49;7.40;;;3.17;;
76021;SDS011;64718;52.124;6.226;2024-01-27T13:23:15;7.10;;;4.35;;
76021;SDS011;64718;52.124;6.226;2024-01-27T13:25:42;5.97;;;2.22;;
76021;SDS011;64718;52.124;6.226;2024-01-27T13:28:08;9.60;;;3.00;;
76021;SDS011;64718;52.124;6.226;2024-01-27T13:30:37;7.47;;;2.33;;
76021;SDS011;64718;52.124;6.226;2024-01-27T13:33:05;5.53;;;2.17;;
76021;SDS011;64718;52.124;6.226;2024-01-27T13:35:32;7.68;;;2.45;;
76021;SDS011;64718;52.124;6.226;2024-01-27T13:37:59;7.07;;;1.65;;
76021;SDS011;64718;52.124;6.226;2024-01-27T13:40:25;6.78;;;2.13;;
76021;SDS011;64718;52.124;6.226;2024-01-27T13:42:52;7.93;;;2.83;;
76021;SDS011;64718;52.124;6.226;2024-01-27T13:45:19;9.27;;;2.70;;
76021;SDS011;64718;52.124;6.226;2024-01-27T13:47:45;10.90;;;2.35;;
76021;SDS011;64718;52.124;6.226;2024-01-27T13:50:13;6.28;;;2.20;;
76021;SDS011;64718;52.124;6.226;2024-01-27T13:52:40;5.20;;;2.05;;
76021;SDS011;64718;52.124;6.226;2024-01-27T13:55:08;10.00;;;3.00;;
76021;SDS011;64718;52.124;6.226;2024-01-27T13:57:36;6.30;;;1.90;;
76021;SDS011;64718;52.124;6.226;2024-01-27T14:00:04;6.57;;;2.40;;
76021;SDS011;64718;52.124;6.226;2024-01-27T14:02:31;8.45;;;2.13;;
76021;SDS011;64718;52.124;6.226;2024-01-27T14:04:58;7.88;;;2.38;;
76021;SDS011;64718;52.124;6.226;2024-01-27T14:07:25;6.82;;;1.83;;
76021;SDS011;64718;52.124;6.226;2024-01-27T14:09:52;6.32;;;2.60;;
76021;SDS011;64718;52.124;6.226;2024-01-27T14:12:19;5.15;;;1.60;;
76021;SDS011;64718;52.124;6.226;2024-01-27T14:14:45;5.72;;;1.95;;
76021;SDS011;64718;52.124;6.226;2024-01-27T14:17:12;9.13;;;2.28;;
76021;SDS011;64718;52.124;6.226;2024-01-27T14:19:39;7.15;;;2.92;;
76021;SDS011;64718;52.124;6.226;2024-01-27T14:22:06;7.82;;;2.20;;
76021;SDS011;64718;52.124;6.226;2024-01-27T14:24:34;5.70;;;1.80;;
76021;SDS011;64718;52.124;6.226;2024-01-27T14:27:01;7.30;;;1.77;;
76021;SDS011;64718;52.124;6.226;2024-01-27T14:29:30;10.60;;;2.13;;
76021;SDS011;64718;52.124;6.226;2024-01-27T14:31:57;7.53;;;2.10;;
76021;SDS011;64718;52.124;6.226;2024-01-27T14:34:23;10.35;;;1.83;;
76021;SDS011;64718;52.124;6.226;2024-01-27T14:36:50;7.72;;;2.15;;
76021;SDS011;64718;52.124;6.226;2024-01-27T14:39:16;7.75;;;1.50;;
76021;SDS011;64718;52.124;6.226;2024-01-27T14:41:44;5.68;;;2.30;;
76021;SDS011;64718;52.124;6.226;2024-01-27T14:44:11;8.18;;;2.42;;